Time;durP1;ratioP1;P1;durP2;ratioP2;P2;SDS_P1;SDS_P2;PMS_P1;PMS_P2;Temp;Humidity;BMP_temperature;BMP_pressure;BME280_temperature;BME280_humidity;BME280_pressure;Samples;Min_cycle;Max_cycle;Signal;HPM_P1;HPM_P2
2021/08/02 00:00:36;;;;;;;6.75;2.35;;;14.00;99.90;;;;;;4963850;28;20554;-86
2021/08/02 00:03:13;;;;;;;5.70;2.63;;;14.00;99.90;;;;;;4967931;28;20043;-86
2021/08/02 00:05:45;;;;;;;4.43;2.00;;;14.00;99.90;;;;;;4972654;28;20499;-86
2021/08/02 00:08:20;;;;;;;4.73;2.63;;;14.00;99.90;;;;;;4969078;28;20066;-86
2021/08/02 00:10:48;;;;;;;6.90;2.25;;;13.90;99.90;;;;;;4968938;28;20298;-85
2021/08/02 00:13:35;;;;;;;4.35;2.20;;;13.90;99.90;;;;;;4964006;28;20118;-87
2021/08/02 00:16:05;;;;;;;7.25;2.63;;;13.90;99.90;;;;;;4965270;28;20088;-86
2021/08/02 00:18:32;;;;;;;5.95;2.33;;;13.90;99.90;;;;;;4978719;28;20027;-86
2021/08/02 00:21:01;;;;;;;8.68;2.30;;;13.90;99.90;;;;;;4964110;28;20483;-86
2021/08/02 00:23:28;;;;;;;6.47;3.08;;;13.90;99.90;;;;;;4968043;28;20043;-86
2021/08/02 00:25:55;;;;;;;6.95;3.25;;;13.90;99.90;;;;;;4969214;28;20027;-86
2021/08/02 00:28:22;;;;;;;5.78;2.28;;;13.90;99.90;;;;;;4974429;28;20046;-87
2021/08/02 00:30:48;;;;;;;7.10;2.63;;;13.90;99.90;;;;;;4968581;28;20033;-86
2021/08/02 00:33:14;;;;;;;4.03;2.10;;;13.90;99.90;;;;;;4970808;28;20026;-86
2021/08/02 00:35:53;;;;;;;9.45;2.35;;;13.90;99.90;;;;;;4971411;28;20395;-86
2021/08/02 00:38:28;;;;;;;5.80;2.38;;;13.90;99.90;;;;;;4992984;28;20030;-86
2021/08/02 00:41:34;;;;;;;5.85;2.30;;;13.90;99.90;;;;;;4963798;28;20398;-86
2021/08/02 00:44:10;;;;;;;5.53;2.38;;;14.00;99.90;;;;;;4971184;28;20042;-86
2021/08/02 00:46:41;;;;;;;9.98;2.95;;;13.90;99.90;;;;;;4979928;28;20031;-86
2021/08/02 00:49:09;;;;;;;6.85;2.78;;;14.00;99.90;;;;;;4966717;28;20027;-86
2021/08/02 00:51:39;;;;;;;8.32;3.28;;;14.00;99.90;;;;;;4969631;28;20027;-86
2021/08/02 00:54:05;;;;;;;7.93;2.58;;;14.00;99.90;;;;;;4967700;28;20093;-86
2021/08/02 00:56:35;;;;;;;4.82;3.30;;;14.00;99.90;;;;;;4972884;28;20058;-86
2021/08/02 00:59:04;;;;;;;8.65;2.72;;;14.10;99.90;;;;;;4967667;28;20097;-86
2021/08/02 01:01:33;;;;;;;7.00;3.15;;;14.10;99.90;;;;;;4969148;28;20031;-86
2021/08/02 01:04:00;;;;;;;7.35;3.33;;;14.10;99.90;;;;;;4969611;28;20034;-86
2021/08/02 01:06:30;;;;;;;8.80;3.20;;;14.00;99.90;;;;;;4968229;28;20085;-86
2021/08/02 01:09:00;;;;;;;8.68;3.20;;;14.00;99.90;;;;;;4967305;28;20114;-86
2021/08/02 01:11:27;;;;;;;7.45;3.10;;;14.00;99.90;;;;;;4963704;28;20024;-85
2021/08/02 01:13:54;;;;;;;11.38;4.13;;;13.90;99.90;;;;;;4965181;28;20054;-85
2021/08/02 01:16:21;;;;;;;7.90;2.67;;;13.90;99.90;;;;;;4965493;28;20488;-86
2021/08/02 01:18:48;;;;;;;6.88;2.97;;;13.90;99.90;;;;;;4969387;28;20027;-86
2021/08/02 01:21:17;;;;;;;4.75;3.10;;;13.90;99.90;;;;;;4973784;28;20022;-86
2021/08/02 01:23:44;;;;;;;7.38;3.13;;;13.90;99.90;;;;;;4972623;28;20039;-86
2021/08/02 01:26:44;;;;;;;6.68;3.05;;;13.90;99.90;;;;;;4968355;28;20047;-85
2021/08/02 01:29:47;;;;;;;10.10;3.58;;;13.90;99.90;;;;;;4969523;28;20066;-86
2021/08/02 01:32:13;;;;;;;;;;;13.90;99.90;;;;;;4973127;28;20053;-86
2021/08/02 01:34:39;;;;;;;7.22;2.83;;;13.90;99.90;;;;;;4973094;28;20004;-86
2021/08/02 01:37:05;;;;;;;9.77;3.83;;;13.90;99.90;;;;;;4970103;28;20035;-86
2021/08/02 01:39:30;;;;;;;7.75;3.28;;;13.90;99.90;;;;;;4971354;28;20023;-86
2021/08/02 01:41:56;;;;;;;6.95;3.78;;;13.90;99.90;;;;;;4975872;28;20082;-86
2021/08/02 01:44:21;;;;;;;12.38;4.40;;;13.90;99.90;;;;;;4975904;28;20043;-86
2021/08/02 01:46:59;;;;;;;7.78;4.45;;;13.90;99.90;;;;;;4974140;28;20026;-86
2021/08/02 01:49:53;;;;;;;10.60;4.25;;;14.00;99.90;;;;;;4977719;28;20035;-86
2021/08/02 01:52:26;;;;;;;10.95;4.47;;;14.00;99.90;;;;;;4972352;28;20126;-86
2021/08/02 01:55:01;;;;;;;12.68;4.60;;;14.00;99.90;;;;;;4975773;28;20113;-86
2021/08/02 01:57:43;;;;;;;5.85;3.90;;;14.00;99.90;;;;;;4976492;28;20166;-86
2021/08/02 02:00:11;;;;;;;9.07;4.00;;;14.00;99.90;;;;;;4970102;28;20057;-86
2021/08/02 02:02:38;;;;;;;9.63;4.55;;;14.10;99.90;;;;;;4971301;28;20027;-86
2021/08/02 02:05:13;;;;;;;5.95;3.45;;;14.10;99.90;;;;;;4971434;28;20031;-86
2021/08/02 02:07:45;;;;;;;8.10;3.22;;;14.10;99.90;;;;;;4974088;28;20045;-86
2021/08/02 02:10:13;;;;;;;7.57;3.30;;;14.10;99.90;;;;;;4971656;28;20523;-86
2021/08/02 02:12:42;;;;;;;9.27;4.15;;;14.10;99.90;;;;;;4977308;28;20290;-86
2021/08/02 02:15:08;;;;;;;7.68;2.90;;;14.10;99.90;;;;;;4974530;28;20111;-86
2021/08/02 02:17:36;;;;;;;11.38;3.78;;;14.10;99.90;;;;;;4961510;28;20118;-86
2021/08/02 02:20:03;;;;;;;9.98;4.10;;;14.20;99.90;;;;;;4970645;28;20552;-86
2021/08/02 02:22:29;;;;;;;7.43;3.60;;;14.10;99.90;;;;;;4974031;28;20027;-86
2021/08/02 02:24:55;;;;;;;8.32;3.60;;;14.10;99.90;;;;;;4971039;28;20494;-86
2021/08/02 02:27:21;;;;;;;8.10;3.50;;;14.20;99.90;;;;;;4974874;28;20057;-86
2021/08/02 02:29:48;;;;;;;7.05;3.00;;;14.20;99.90;;;;;;4967963;28;20038;-86
2021/08/02 02:32:14;;;;;;;10.02;4.10;;;14.20;99.90;;;;;;4970307;28;20034;-86
2021/08/02 02:34:40;;;;;;;6.18;3.78;;;14.20;99.90;;;;;;4970542;28;20034;-86
2021/08/02 02:37:07;;;;;;;10.00;3.97;;;14.20;99.90;;;;;;4974086;28;20118;-86
2021/08/02 02:39:34;;;;;;;7.20;3.10;;;14.10;99.90;;;;;;4972394;28;20035;-86
2021/08/02 02:42:01;;;;;;;6.57;3.28;;;14.10;99.90;;;;;;4972792;28;20027;-86
2021/08/02 02:44:27;;;;;;;5.53;3.15;;;14.10;99.90;;;;;;4971159;28;20043;-86
2021/08/02 02:46:54;;;;;;;8.50;3.50;;;14.20;99.90;;;;;;4967092;28;20490;-86
2021/08/02 02:49:21;;;;;;;9.07;3.45;;;14.20;99.90;;;;;;4971302;28;20038;-85
2021/08/02 02:51:50;;;;;;;7.60;3.33;;;14.20;99.90;;;;;;4971684;28;20038;-86
2021/08/02 02:54:19;;;;;;;7.60;3.00;;;14.20;99.90;;;;;;4975213;28;20127;-86
2021/08/02 02:56:45;;;;;;;10.30;3.42;;;14.20;99.90;;;;;;4969920;28;20173;-86
2021/08/02 02:59:10;;;;;;;8.68;3.50;;;14.20;99.90;;;;;;4971865;28;20026;-86
2021/08/02 03:01:43;;;;;;;10.30;2.85;;;14.20;99.90;;;;;;4966928;28;20101;-86
2021/08/02 03:04:10;;;;;;;8.10;3.55;;;14.20;99.90;;;;;;4976504;28;20053;-86
2021/08/02 03:06:36;;;;;;;7.95;3.08;;;14.20;99.90;;;;;;4974203;28;20098;-86
2021/08/02 03:09:03;;;;;;;8.73;2.80;;;14.20;99.90;;;;;;4965499;28;20033;-86
2021/08/02 03:11:30;;;;;;;5.75;2.60;;;14.20;99.90;;;;;;4969536;28;20444;-86
2021/08/02 03:13:56;;;;;;;9.95;2.45;;;14.20;99.90;;;;;;4965052;28;20053;-86
2021/08/02 03:16:24;;;;;;;7.28;2.45;;;14.20;99.90;;;;;;4970272;28;20127;-86
2021/08/02 03:18:50;;;;;;;4.28;2.53;;;14.20;99.90;;;;;;4973797;28;20510;-86
2021/08/02 03:21:16;;;;;;;9.25;3.03;;;14.20;99.90;;;;;;4970133;28;20023;-86
2021/08/02 03:24:02;;;;;;;5.65;2.78;;;14.20;99.90;;;;;;4974633;28;20054;-86
2021/08/02 03:26:33;;;;;;;7.13;2.65;;;14.20;99.90;;;;;;4967845;28;20869;-85
2021/08/02 03:29:07;;;;;;;7.80;2.70;;;14.20;99.90;;;;;;4964761;28;20022;-86
2021/08/02 03:31:44;;;;;;;6.47;2.80;;;14.20;99.90;;;;;;4973638;28;20038;-86
2021/08/02 03:34:15;;;;;;;5.50;2.50;;;14.20;99.90;;;;;;4975686;28;20027;-86
2021/08/02 03:36:42;;;;;;;7.70;2.80;;;14.20;99.90;;;;;;4973923;28;20034;-86
2021/08/02 03:39:08;;;;;;;5.65;2.75;;;14.20;99.90;;;;;;4970073;28;20505;-87
2021/08/02 03:41:34;;;;;;;8.15;2.90;;;14.20;99.90;;;;;;4975625;28;20035;-87
2021/08/02 03:44:01;;;;;;;6.03;2.72;;;14.20;99.90;;;;;;4973508;28;20035;-86
2021/08/02 03:46:28;;;;;;;5.75;2.80;;;14.20;99.90;;;;;;4964291;28;20031;-87
2021/08/02 03:48:54;;;;;;;9.75;2.78;;;14.20;99.90;;;;;;4974155;28;20031;-87
2021/08/02 03:51:20;;;;;;;6.78;2.40;;;14.20;99.90;;;;;;4976353;28;20037;-86
2021/08/02 03:53:50;;;;;;;7.00;3.17;;;14.20;99.90;;;;;;4959863;28;20031;-87
2021/08/02 03:56:17;;;;;;;6.53;2.65;;;14.10;99.90;;;;;;4961451;28;20023;-86
2021/08/02 03:58:43;;;;;;;6.90;2.75;;;14.10;99.90;;;;;;4967889;28;20062;-87
2021/08/02 04:01:10;;;;;;;4.32;2.97;;;14.10;99.90;;;;;;4969278;28;20018;-87
2021/08/02 04:03:35;;;;;;;7.97;2.70;;;14.10;99.90;;;;;;4967415;28;20039;-87
2021/08/02 04:06:01;;;;;;;11.38;3.40;;;14.20;99.90;;;;;;4971645;28;20121;-87
2021/08/02 04:08:27;;;;;;;6.20;2.90;;;14.20;99.90;;;;;;4977108;28;20027;-87
2021/08/02 04:10:54;;;;;;;9.30;3.65;;;14.10;99.90;;;;;;4975787;28;20027;-87
2021/08/02 04:13:19;;;;;;;9.73;3.22;;;14.10;99.90;;;;;;4976134;28;20023;-87
2021/08/02 04:15:46;;;;;;;7.65;3.65;;;14.10;99.90;;;;;;4972647;28;20483;-87
2021/08/02 04:18:12;;;;;;;11.45;4.05;;;14.10;99.90;;;;;;4958047;28;20500;-86
2021/08/02 04:20:37;;;;;;;7.72;3.33;;;14.10;99.90;;;;;;4960016;28;20055;-87
2021/08/02 04:23:03;;;;;;;8.25;4.57;;;14.10;99.90;;;;;;4970326;28;20034;-87
2021/08/02 04:25:28;;;;;;;7.43;4.18;;;14.10;99.90;;;;;;4971685;28;20051;-87
2021/08/02 04:27:55;;;;;;;10.20;4.65;;;14.10;99.90;;;;;;4971355;28;20078;-88
2021/08/02 04:30:21;;;;;;;7.70;4.63;;;14.10;99.90;;;;;;4973290;28;20033;-88
2021/08/02 04:32:47;;;;;;;10.63;4.35;;;14.10;99.90;;;;;;4973922;28;20030;-87
2021/08/02 04:35:13;;;;;;;7.85;4.30;;;14.10;99.90;;;;;;4969256;28;20023;-87
2021/08/02 04:37:39;;;;;;;10.90;4.57;;;14.20;99.90;;;;;;4965082;28;20089;-88
2021/08/02 04:40:05;;;;;;;8.13;4.35;;;14.20;99.90;;;;;;4974989;28;20098;-88
2021/08/02 04:42:38;;;;;;;17.48;4.95;;;14.20;99.90;;;;;;4973969;28;20038;-88
2021/08/02 04:45:05;;;;;;;9.07;4.50;;;14.30;99.90;;;;;;4970965;28;20161;-88
2021/08/02 04:47:30;;;;;;;13.32;5.05;;;14.20;99.90;;;;;;4972612;28;20475;-87
2021/08/02 04:49:56;;;;;;;9.68;4.72;;;14.30;99.90;;;;;;4973001;28;20041;-87
2021/08/02 04:52:21;;;;;;;7.35;4.07;;;14.30;99.90;;;;;;4973372;28;20030;-88
2021/08/02 04:54:47;;;;;;;10.82;4.68;;;14.30;99.90;;;;;;4973349;28;20502;-87
2021/08/02 04:57:12;;;;;;;11.32;4.78;;;14.40;99.90;;;;;;4972664;28;20045;-87
2021/08/02 04:59:39;;;;;;;7.65;4.68;;;14.40;99.90;;;;;;4972974;28;20089;-88
2021/08/02 05:02:06;;;;;;;7.20;4.72;;;14.40;99.90;;;;;;4966868;28;20039;-87
2021/08/02 05:04:32;;;;;;;6.60;4.03;;;14.50;99.90;;;;;;4991001;28;20043;-88
2021/08/02 05:06:57;;;;;;;12.55;4.70;;;14.50;99.90;;;;;;4972146;28;20019;-86
2021/08/02 05:09:23;;;;;;;9.50;4.53;;;14.50;99.90;;;;;;4969503;28;20030;-87
2021/08/02 05:11:50;;;;;;;8.32;4.85;;;14.50;99.90;;;;;;4973596;28;20105;-87
2021/08/02 05:14:16;;;;;;;9.95;4.45;;;14.50;99.90;;;;;;4975424;28;20031;-87
2021/08/02 05:16:43;;;;;;;23.70;4.65;;;14.50;99.90;;;;;;4974811;28;20061;-87
2021/08/02 05:19:09;;;;;;;8.43;4.47;;;14.50;99.90;;;;;;4966752;28;20376;-87
2021/08/02 05:21:35;;;;;;;8.40;4.82;;;14.50;99.90;;;;;;4974971;28;20034;-87
2021/08/02 05:24:00;;;;;;;10.73;3.90;;;14.40;99.90;;;;;;4973399;28;20622;-87
2021/08/02 05:26:26;;;;;;;7.70;4.00;;;14.50;99.90;;;;;;4964197;28;20039;-87
2021/08/02 05:28:51;;;;;;;12.00;5.20;;;14.50;99.90;;;;;;4962887;28;20035;-86
2021/08/02 05:31:17;;;;;;;8.30;4.38;;;14.60;99.90;;;;;;4963002;28;20027;-87
2021/08/02 05:33:42;;;;;;;8.95;4.43;;;14.60;99.90;;;;;;4964178;28;20034;-87
2021/08/02 05:36:08;;;;;;;13.05;4.95;;;14.70;99.90;;;;;;4975204;28;20029;-87
2021/08/02 05:38:33;;;;;;;7.55;4.22;;;14.80;99.90;;;;;;4973875;28;20065;-88
2021/08/02 05:40:59;;;;;;;10.90;3.75;;;14.90;99.90;;;;;;4959539;28;20484;-87
2021/08/02 05:43:25;;;;;;;6.88;3.83;;;15.00;99.90;;;;;;4969459;28;20459;-88
2021/08/02 05:45:51;;;;;;;9.25;4.43;;;15.00;99.90;;;;;;4963015;28;20033;-88
2021/08/02 05:48:16;;;;;;;8.48;4.03;;;15.10;99.90;;;;;;4974603;28;20174;-87
2021/08/02 05:50:42;;;;;;;10.32;3.88;;;15.10;99.90;;;;;;4974346;28;20062;-88
2021/08/02 05:53:07;;;;;;;7.25;3.53;;;15.10;99.90;;;;;;4974774;28;20045;-88
2021/08/02 05:55:33;;;;;;;9.32;3.50;;;15.10;99.90;;;;;;4971092;28;20022;-88
2021/08/02 05:57:58;;;;;;;7.32;3.08;;;15.10;99.90;;;;;;4970186;28;20101;-87
2021/08/02 06:00:25;;;;;;;7.68;3.10;;;15.10;99.90;;;;;;4970930;28;20430;-88
2021/08/02 06:02:51;;;;;;;8.80;3.03;;;15.10;99.90;;;;;;4973566;28;20529;-86
2021/08/02 06:05:17;;;;;;;5.30;2.75;;;15.30;99.90;;;;;;4973269;28;20047;-87
2021/08/02 06:07:43;;;;;;;4.93;2.50;;;15.40;99.90;;;;;;4973925;28;20037;-87
2021/08/02 06:10:12;;;;;;;6.80;2.85;;;15.40;99.90;;;;;;4972201;28;20038;-87
2021/08/02 06:12:38;;;;;;;8.65;2.20;;;15.50;99.90;;;;;;4972769;28;20039;-88
2021/08/02 06:15:05;;;;;;;5.60;2.20;;;15.50;99.90;;;;;;4970569;28;20026;-87
2021/08/02 06:17:30;;;;;;;6.25;1.65;;;15.60;99.90;;;;;;4969066;28;20027;-88
2021/08/02 06:19:56;;;;;;;5.40;2.50;;;15.70;99.90;;;;;;4983360;28;20027;-87
2021/08/02 06:22:21;;;;;;;8.80;2.03;;;15.60;99.90;;;;;;4957269;29;20031;-87
2021/08/02 06:24:47;;;;;;;7.82;1.98;;;15.70;99.90;;;;;;4974095;28;20090;-87
2021/08/02 06:27:12;;;;;;;6.32;1.73;;;15.80;99.90;;;;;;4974483;28;20085;-87
2021/08/02 06:29:38;;;;;;;9.60;2.47;;;15.70;99.70;;;;;;4972406;28;20030;-87
2021/08/02 06:32:08;;;;;;;3.78;1.90;;;15.80;99.60;;;;;;4976471;28;20058;-87
2021/08/02 06:34:34;;;;;;;4.97;1.95;;;15.80;99.50;;;;;;4975257;28;20023;-87
2021/08/02 06:37:00;;;;;;;5.00;2.17;;;15.90;99.40;;;;;;4975666;28;20042;-87
2021/08/02 06:39:26;;;;;;;5.30;1.75;;;15.90;99.30;;;;;;4972544;28;20118;-87
2021/08/02 06:41:51;;;;;;;6.25;2.25;;;16.00;99.10;;;;;;4975223;28;20085;-88
2021/08/02 06:44:18;;;;;;;6.18;2.38;;;16.10;99.00;;;;;;4977540;28;20039;-87
2021/08/02 06:46:44;;;;;;;7.43;2.42;;;16.10;98.90;;;;;;4976127;28;20057;-87
2021/08/02 06:49:09;;;;;;;5.90;1.50;;;16.20;98.60;;;;;;4977766;28;20042;-87
2021/08/02 06:51:35;;;;;;;5.95;1.88;;;16.20;98.40;;;;;;4977946;28;20022;-87
2021/08/02 06:54:00;;;;;;;6.35;2.03;;;16.20;98.30;;;;;;4961207;28;20031;-87
2021/08/02 06:56:26;;;;;;;5.78;1.92;;;16.20;98.20;;;;;;4958121;28;20480;-87
2021/08/02 06:58:51;;;;;;;6.72;1.55;;;16.30;98.00;;;;;;4976663;28;20554;-87
2021/08/02 07:01:17;;;;;;;5.95;1.90;;;16.40;98.10;;;;;;4975939;28;20387;-87
2021/08/02 07:03:42;;;;;;;6.32;1.65;;;16.50;97.90;;;;;;4975628;28;20047;-87
2021/08/02 07:06:08;;;;;;;5.22;1.42;;;16.60;97.90;;;;;;4970823;28;20027;-87
2021/08/02 07:08:37;;;;;;;4.55;1.00;;;16.60;97.70;;;;;;4974342;28;20386;-88
2021/08/02 07:11:03;;;;;;;5.40;1.38;;;16.70;97.40;;;;;;4974757;28;20031;-88
2021/08/02 07:13:28;;;;;;;7.63;0.70;;;16.80;97.10;;;;;;4974624;28;20031;-87
2021/08/02 07:15:54;;;;;;;9.05;0.90;;;16.80;96.60;;;;;;4973864;28;20027;-87
2021/08/02 07:18:21;;;;;;;2.85;0.70;;;16.90;96.30;;;;;;4974879;28;20431;-89
2021/08/02 07:20:48;;;;;;;2.97;0.70;;;16.90;96.10;;;;;;4975433;28;20034;-91
2021/08/02 07:23:15;;;;;;;2.90;0.77;;;17.10;96.10;;;;;;4973923;28;20459;-91
2021/08/02 07:25:41;;;;;;;4.57;0.68;;;17.30;96.00;;;;;;4975147;28;20034;-86
2021/08/02 07:28:06;;;;;;;2.92;1.13;;;17.40;95.10;;;;;;4969180;28;20111;-87
2021/08/02 07:30:32;;;;;;;1.45;0.75;;;17.50;95.30;;;;;;4965215;28;20207;-86
2021/08/02 07:32:57;;;;;;;5.53;0.52;;;17.60;94.60;;;;;;4966678;28;20050;-85
2021/08/02 07:35:23;;;;;;;5.05;0.90;;;17.50;94.60;;;;;;4976623;28;20023;-86
2021/08/02 07:37:48;;;;;;;4.63;0.70;;;17.50;94.30;;;;;;4974882;28;20031;-86
2021/08/02 07:40:14;;;;;;;2.63;0.82;;;17.50;94.10;;;;;;4970347;28;20027;-87
2021/08/02 07:42:40;;;;;;;5.80;0.70;;;17.50;94.00;;;;;;4968157;28;20027;-86
2021/08/02 07:45:06;;;;;;;3.75;1.13;;;17.60;93.90;;;;;;4968007;28;20090;-86
2021/08/02 07:47:32;;;;;;;4.38;0.88;;;17.60;93.80;;;;;;4975192;28;20031;-85
2021/08/02 07:49:57;;;;;;;4.10;0.47;;;17.80;93.70;;;;;;4975140;28;20082;-86
2021/08/02 07:52:23;;;;;;;1.80;0.50;;;18.00;93.00;;;;;;4956387;28;20032;-85
2021/08/02 07:54:49;;;;;;;2.72;0.43;;;18.20;92.60;;;;;;4972716;28;20063;-85
2021/08/02 07:57:14;;;;;;;2.63;0.38;;;18.30;92.10;;;;;;4970775;28;20114;-86
2021/08/02 07:59:40;;;;;;;1.60;0.30;;;18.30;91.60;;;;;;4955528;29;20074;-85
2021/08/02 08:02:06;;;;;;;3.13;0.30;;;18.20;91.20;;;;;;4954410;28;20027;-86
2021/08/02 08:04:31;;;;;;;2.40;0.30;;;18.10;91.20;;;;;;4969069;28;20158;-86
2021/08/02 08:06:57;;;;;;;1.92;0.30;;;18.10;90.90;;;;;;4969692;28;20157;-85
2021/08/02 08:09:24;;;;;;;3.60;0.30;;;18.20;90.70;;;;;;4967652;28;20031;-85
2021/08/02 08:11:50;;;;;;;6.47;0.50;;;18.30;90.30;;;;;;4960416;28;20019;-85
2021/08/02 08:14:15;;;;;;;3.38;0.50;;;18.40;90.20;;;;;;4973102;28;20030;-85
2021/08/02 08:16:41;;;;;;;3.38;0.50;;;18.60;90.00;;;;;;4966847;28;20091;-85
2021/08/02 08:19:07;;;;;;;2.00;0.40;;;18.80;88.90;;;;;;4969753;28;20031;-85
2021/08/02 08:21:35;;;;;;;1.40;0.30;;;19.00;88.50;;;;;;4973918;28;20023;-85
2021/08/02 08:24:03;;;;;;;3.40;0.40;;;19.20;88.40;;;;;;4972089;28;20038;-86
2021/08/02 08:26:29;;;;;;;4.00;0.40;;;19.30;87.30;;;;;;4973070;28;20046;-89
2021/08/02 08:28:54;;;;;;;1.50;0.28;;;19.30;86.20;;;;;;4972292;28;20573;-89
2021/08/02 08:31:20;;;;;;;0.93;0.28;;;19.30;86.00;;;;;;4968961;28;20109;-89
2021/08/02 08:33:47;;;;;;;2.45;0.30;;;19.40;86.10;;;;;;4977466;28;20027;-89
2021/08/02 08:36:15;;;;;;;5.35;0.40;;;19.40;85.20;;;;;;4972357;28;20035;-88
2021/08/02 08:38:41;;;;;;;2.85;0.40;;;19.40;84.70;;;;;;4973926;28;20031;-88
2021/08/02 08:41:06;;;;;;;2.88;0.30;;;19.30;84.80;;;;;;4965387;28;20030;-88
2021/08/02 08:43:32;;;;;;;2.92;0.40;;;19.30;85.00;;;;;;4969442;28;20030;-89
2021/08/02 08:45:58;;;;;;;2.45;0.38;;;19.30;84.40;;;;;;4972839;28;20038;-88
2021/08/02 08:48:23;;;;;;;1.20;0.30;;;19.30;84.00;;;;;;4973842;28;20035;-88
2021/08/02 08:50:49;;;;;;;2.42;0.30;;;19.30;83.60;;;;;;4971707;28;20033;-88
2021/08/02 08:53:20;;;;;;;2.08;0.30;;;19.30;82.60;;;;;;4967454;28;20086;-89
2021/08/02 08:55:46;;;;;;;3.45;0.30;;;19.40;81.80;;;;;;4958576;28;20483;-90
2021/08/02 08:58:12;;;;;;;2.78;0.50;;;19.50;81.50;;;;;;4954986;29;20027;-86
2021/08/02 09:00:38;;;;;;;3.65;0.30;;;19.60;80.80;;;;;;4967487;28;20030;-88
2021/08/02 09:03:12;;;;;;;3.22;0.50;;;19.70;81.30;;;;;;4972510;28;20034;-88
2021/08/02 09:05:38;;;;;;;2.92;0.45;;;19.90;81.60;;;;;;4973537;28;20054;-86
2021/08/02 09:08:04;;;;;;;1.05;0.30;;;20.10;80.70;;;;;;4970614;28;20099;-86
2021/08/02 09:10:30;;;;;;;2.58;0.30;;;20.10;79.70;;;;;;4966032;28;20031;-85
2021/08/02 09:13:04;;;;;;;0.98;0.40;;;20.10;79.90;;;;;;4971181;28;20029;-86
2021/08/02 09:15:38;;;;;;;1.70;0.40;;;20.00;79.40;;;;;;4972250;28;20511;-86
2021/08/02 09:18:08;;;;;;;2.10;0.28;;;20.00;79.00;;;;;;4972854;28;20069;-86
2021/08/02 09:20:34;;;;;;;0.98;0.17;;;20.10;77.50;;;;;;4972951;28;20027;-87
2021/08/02 09:23:14;;;;;;;2.38;0.20;;;20.30;78.00;;;;;;4972923;28;20023;-86
2021/08/02 09:25:54;;;;;;;4.32;0.57;;;20.50;76.90;;;;;;4965237;28;20042;-86
2021/08/02 09:28:22;;;;;;;2.60;0.35;;;20.70;76.90;;;;;;4974164;28;20495;-86
2021/08/02 09:31:02;;;;;;;2.15;0.30;;;20.80;76.30;;;;;;4973356;28;20439;-85
2021/08/02 09:33:46;;;;;;;4.18;0.40;;;20.80;75.80;;;;;;4969862;28;20483;-86
2021/08/02 09:36:12;;;;;;;1.55;0.60;;;20.80;75.10;;;;;;4971356;28;20519;-87
2021/08/02 09:38:38;;;;;;;1.08;0.30;;;20.70;75.30;;;;;;4973204;28;20019;-87
2021/08/02 09:41:04;;;;;;;2.17;0.30;;;20.60;75.10;;;;;;4973147;28;20025;-87
2021/08/02 09:43:31;;;;;;;1.20;0.30;;;20.50;75.30;;;;;;4974930;28;20042;-87
2021/08/02 09:45:59;;;;;;;1.15;0.28;;;20.50;76.00;;;;;;4974223;28;20027;-88
2021/08/02 09:48:37;;;;;;;1.15;0.30;;;20.30;76.60;;;;;;4974742;28;20493;-87
2021/08/02 09:51:12;;;;;;;2.10;0.50;;;20.20;77.00;;;;;;4973042;28;20042;-87
2021/08/02 09:53:42;;;;;;;2.83;0.50;;;19.90;77.30;;;;;;4992493;28;20034;-87
2021/08/02 09:56:10;;;;;;;3.00;1.20;;;19.70;77.80;;;;;;4977130;28;20031;-88
2021/08/02 09:58:36;;;;;;;2.05;0.52;;;19.40;77.60;;;;;;4975554;28;20114;-87
2021/08/02 10:01:02;;;;;;;1.30;0.30;;;19.20;78.30;;;;;;4966256;28;20062;-87
2021/08/02 10:03:29;;;;;;;3.10;0.40;;;19.10;78.50;;;;;;4977651;28;20106;-87
2021/08/02 10:05:55;;;;;;;4.43;0.38;;;19.00;78.90;;;;;;4978073;28;20069;-87
2021/08/02 10:08:21;;;;;;;5.45;0.50;;;18.90;79.30;;;;;;4977264;28;20023;-87
2021/08/02 10:10:46;;;;;;;1.23;0.30;;;18.90;79.20;;;;;;4977369;28;20026;-87
2021/08/02 10:13:24;;;;;;;4.63;1.38;;;18.90;79.40;;;;;;4972823;28;20126;-87
2021/08/02 10:15:57;;;;;;;2.13;0.30;;;19.10;79.30;;;;;;4974736;28;20383;-87
2021/08/02 10:18:26;;;;;;;1.58;0.30;;;19.10;79.20;;;;;;4978118;28;20113;-87
2021/08/02 10:21:03;;;;;;;3.05;0.40;;;19.30;79.30;;;;;;4976760;28;20022;-86
2021/08/02 10:23:28;;;;;;;6.78;1.35;;;19.40;79.00;;;;;;4976381;28;20074;-86
2021/08/02 10:25:54;;;;;;;2.90;0.25;;;19.60;79.00;;;;;;4976207;28;20023;-86
2021/08/02 10:28:20;;;;;;;1.48;0.22;;;19.70;79.40;;;;;;4976343;28;20479;-87
2021/08/02 10:30:48;;;;;;;1.88;0.30;;;19.90;77.80;;;;;;4976514;28;20031;-87
2021/08/02 10:33:14;;;;;;;1.35;0.30;;;19.90;77.00;;;;;;4976270;28;20027;-87
2021/08/02 10:35:45;;;;;;;1.25;0.30;;;20.10;77.20;;;;;;4977472;28;20501;-87
2021/08/02 10:38:16;;;;;;;2.35;0.35;;;20.20;76.90;;;;;;4972377;28;20403;-87
2021/08/02 10:40:53;;;;;;;2.17;0.30;;;20.40;77.00;;;;;;4958122;29;20506;-86
2021/08/02 10:43:44;;;;;;;1.55;0.20;;;20.60;76.50;;;;;;4956822;29;20042;-87
2021/08/02 10:46:22;;;;;;;5.15;0.82;;;20.80;76.40;;;;;;4956687;28;20065;-86
2021/08/02 10:48:49;;;;;;;3.25;0.40;;;21.00;76.00;;;;;;4975035;28;20035;-86
2021/08/02 10:51:20;;;;;;;1.33;0.30;;;21.20;75.00;;;;;;4975979;28;20483;-86
2021/08/02 10:54:01;;;;;;;1.80;0.40;;;21.40;73.70;;;;;;4959473;28;20046;-86
2021/08/02 10:56:32;;;;;;;3.47;0.40;;;21.40;72.00;;;;;;4972858;28;20024;-87
2021/08/02 10:58:59;;;;;;;2.60;0.30;;;21.40;72.60;;;;;;4972891;28;20027;-86
2021/08/02 11:01:26;;;;;;;1.65;0.32;;;21.30;72.80;;;;;;4975946;28;20030;-86
2021/08/02 11:03:56;;;;;;;3.35;0.85;;;21.20;72.70;;;;;;4974384;28;20491;-85
2021/08/02 11:06:22;;;;;;;2.83;0.30;;;21.10;73.70;;;;;;4976842;28;20038;-86
2021/08/02 11:08:54;;;;;;;3.13;0.30;;;20.90;73.80;;;;;;4975270;28;20034;-87
2021/08/02 11:11:30;;;;;;;3.93;0.50;;;20.70;74.10;;;;;;4979449;28;20038;-86
2021/08/02 11:14:05;;;;;;;3.63;0.30;;;20.60;74.00;;;;;;4975722;28;20038;-86
2021/08/02 11:16:43;;;;;;;3.53;0.30;;;20.60;73.90;;;;;;4991452;28;20436;-86
2021/08/02 11:19:31;;;;;;;1.40;0.20;;;20.60;74.50;;;;;;4976519;28;20019;-86
2021/08/02 11:22:00;;;;;;;3.03;0.40;;;20.90;75.10;;;;;;4973802;28;20079;-86
2021/08/02 11:24:28;;;;;;;1.50;0.30;;;21.10;73.90;;;;;;4958520;29;20039;-86
2021/08/02 11:26:55;;;;;;;3.33;0.43;;;21.20;74.70;;;;;;4957758;29;20047;-86
2021/08/02 11:29:23;;;;;;;2.05;0.40;;;21.50;74.00;;;;;;4966227;28;20031;-86
2021/08/02 11:32:05;;;;;;;2.15;0.30;;;21.70;72.90;;;;;;4977136;28;20031;-86
2021/08/02 11:34:32;;;;;;;2.17;0.50;;;21.90;72.10;;;;;;4975443;28;20031;-86
2021/08/02 11:37:04;;;;;;;2.25;0.40;;;21.90;71.60;;;;;;4975758;28;20112;-86
2021/08/02 11:39:31;;;;;;;3.08;0.60;;;21.90;70.90;;;;;;4976559;28;20023;-87
2021/08/02 11:42:11;;;;;;;4.63;0.40;;;21.70;70.70;;;;;;4971598;28;20038;-86
2021/08/02 11:44:40;;;;;;;3.85;0.30;;;21.50;69.60;;;;;;4972381;28;20039;-86
2021/08/02 11:47:10;;;;;;;3.65;0.45;;;21.40;70.00;;;;;;4974632;28;20031;-86
2021/08/02 11:49:40;;;;;;;1.58;0.28;;;21.40;69.80;;;;;;4974443;28;20023;-87
2021/08/02 11:52:06;;;;;;;2.63;0.40;;;21.40;69.10;;;;;;4976799;28;20023;-87
2021/08/02 11:54:32;;;;;;;2.45;0.30;;;21.40;68.60;;;;;;4976171;28;20125;-86
2021/08/02 11:56:57;;;;;;;1.08;0.20;;;21.30;68.60;;;;;;4975863;28;20074;-86
2021/08/02 11:59:32;;;;;;;1.70;0.32;;;21.30;69.00;;;;;;4976686;28;20454;-86
2021/08/02 12:02:02;;;;;;;2.55;0.30;;;21.20;69.10;;;;;;4973732;28;20026;-87
2021/08/02 12:04:39;;;;;;;2.67;0.30;;;21.20;69.60;;;;;;4973708;28;20491;-85
2021/08/02 12:07:07;;;;;;;1.42;0.30;;;21.20;68.80;;;;;;4976685;28;20042;-86
2021/08/02 12:09:37;;;;;;;1.23;0.30;;;21.30;69.20;;;;;;4976340;28;20029;-86
2021/08/02 12:12:06;;;;;;;2.70;0.40;;;21.30;69.20;;;;;;4974766;28;20078;-86
2021/08/02 12:14:33;;;;;;;2.72;0.30;;;21.40;68.80;;;;;;4974498;28;20446;-86
2021/08/02 12:17:05;;;;;;;2.78;0.50;;;21.40;68.20;;;;;;4974427;28;20023;-86
2021/08/02 12:19:41;;;;;;;2.45;0.30;;;21.30;67.90;;;;;;4974684;28;20129;-87
2021/08/02 12:22:07;;;;;;;3.47;0.30;;;21.30;69.10;;;;;;4974941;28;20035;-86
2021/08/02 12:24:32;;;;;;;4.45;0.40;;;21.20;69.00;;;;;;4974287;28;20495;-87
2021/08/02 12:26:58;;;;;;;2.92;0.60;;;21.10;68.60;;;;;;4974626;28;20130;-86
2021/08/02 12:29:28;;;;;;;2.88;0.32;;;20.80;68.40;;;;;;4975281;28;20027;-87
2021/08/02 12:31:54;;;;;;;2.05;0.30;;;20.70;69.30;;;;;;4973812;28;20027;-88
2021/08/02 12:34:20;;;;;;;3.30;0.65;;;20.70;69.30;;;;;;4969292;28;20022;-86
2021/08/02 12:36:45;;;;;;;3.35;0.40;;;20.80;69.10;;;;;;4974131;28;20122;-86
2021/08/02 12:39:11;;;;;;;1.58;0.45;;;20.70;68.50;;;;;;4973422;28;20240;-87
2021/08/02 12:41:37;;;;;;;1.10;0.30;;;20.80;67.70;;;;;;4967390;28;20036;-86
2021/08/02 12:44:03;;;;;;;4.28;0.30;;;21.00;67.90;;;;;;4967885;28;20030;-86
2021/08/02 12:46:29;;;;;;;1.90;0.40;;;21.20;67.10;;;;;;4976242;28;20018;-87
2021/08/02 12:48:54;;;;;;;1.70;0.40;;;21.30;67.10;;;;;;4960223;28;20456;-86
2021/08/02 12:51:22;;;;;;;1.50;0.32;;;21.50;66.60;;;;;;4967132;28;20046;-86